createdAt,value
2022-08-08T00:00:53.802Z,0.00
2022-08-08T00:00:54.152Z,0.00
2022-08-08T00:02:03.158Z,0.00
2022-08-08T00:02:46.483Z,0.00
2022-08-08T00:03:45.271Z,0.00
2022-08-08T00:04:49.458Z,0.00
2022-08-08T00:06:02.746Z,0.00
2022-08-08T00:06:46.272Z,0.00
2022-08-08T00:07:45.179Z,0.00
2022-08-08T00:08:49.140Z,0.00
2022-08-08T00:09:45.150Z,0.00
2022-08-08T00:10:46.181Z,0.00
2022-08-08T00:11:46.601Z,0.00
2022-08-08T00:12:48.511Z,0.00
2022-08-08T00:14:15.333Z,0.00
2022-08-08T00:14:48.467Z,0.00
2022-08-08T00:15:56.511Z,0.00
2022-08-08T00:16:46.183Z,0.00
2022-08-08T00:18:02.408Z,0.00
2022-08-08T00:18:46.080Z,0.00
2022-08-08T00:19:51.236Z,0.00
2022-08-08T00:20:46.098Z,0.00
2022-08-08T00:21:45.105Z,0.00
2022-08-08T00:22:45.078Z,0.00
2022-08-08T00:23:51.067Z,0.00
2022-08-08T00:24:46.061Z,0.00
2022-08-08T00:25:50.625Z,0.00
2022-08-08T00:26:46.089Z,0.00
2022-08-08T00:27:45.038Z,0.00
2022-08-08T00:28:44.991Z,0.00
2022-08-08T00:29:46.968Z,0.00
2022-08-08T00:31:00.219Z,0.00
2022-08-08T00:32:28.742Z,0.00
2022-08-08T00:32:46.199Z,0.00
2022-08-08T00:34:17.319Z,0.00
2022-08-08T00:34:46.002Z,0.00
2022-08-08T00:35:48.185Z,0.00
2022-08-08T00:36:44.988Z,0.00
2022-08-08T00:37:57.025Z,0.00
2022-08-08T00:38:51.758Z,0.00
2022-08-08T00:41:10.273Z,0.00
2022-08-08T00:41:10.463Z,0.00
2022-08-08T00:42:08.073Z,0.00
2022-08-08T00:42:46.051Z,0.00
2022-08-08T00:43:46.007Z,0.00
2022-08-08T00:44:45.877Z,0.00
2022-08-08T00:45:44.880Z,0.00
2022-08-08T00:46:56.933Z,0.00
2022-08-08T00:48:02.070Z,0.00
2022-08-08T00:49:00.886Z,0.00
2022-08-08T00:49:57.728Z,0.00
2022-08-08T00:50:48.186Z,0.00
2022-08-08T00:51:45.861Z,0.00
2022-08-08T00:52:48.398Z,0.00
2022-08-08T00:54:04.132Z,0.00
2022-08-08T00:54:45.981Z,0.00
2022-08-08T00:55:53.755Z,0.00
2022-08-08T00:56:45.745Z,0.00
2022-08-08T00:57:44.767Z,0.00
2022-08-08T00:58:54.737Z,0.00
2022-08-08T00:59:46.419Z,0.00
2022-08-08T01:00:44.752Z,0.00
2022-08-08T01:01:45.779Z,0.00
2022-08-08T01:03:59.516Z,0.00
2022-08-08T01:04:01.688Z,0.00
2022-08-08T01:04:47.375Z,0.00
2022-08-08T01:05:59.339Z,0.00
2022-08-08T01:06:47.512Z,0.00
2022-08-08T01:07:55.403Z,0.00
2022-08-08T01:08:50.145Z,0.00
2022-08-08T01:09:48.732Z,0.00
2022-08-08T01:10:44.570Z,0.00
2022-08-08T01:11:51.821Z,0.00
2022-08-08T01:12:45.598Z,0.00
2022-08-08T01:13:45.959Z,0.00
2022-08-08T01:14:53.379Z,0.00
2022-08-08T01:15:53.261Z,0.00
2022-08-08T01:16:46.702Z,0.00
2022-08-08T01:17:55.566Z,0.00
2022-08-08T01:18:53.259Z,0.00
2022-08-08T01:20:02.670Z,0.00
2022-08-08T01:20:45.486Z,0.00
2022-08-08T01:22:10.308Z,0.00
2022-08-08T01:22:45.524Z,0.00
2022-08-08T01:24:02.697Z,0.00
2022-08-08T01:24:50.641Z,0.00
2022-08-08T01:25:45.469Z,0.00
2022-08-08T01:26:49.376Z,0.00
2022-08-08T01:27:46.326Z,0.00
2022-08-08T01:28:44.406Z,0.00
2022-08-08T01:29:59.709Z,0.00
2022-08-08T01:30:45.752Z,0.00
2022-08-08T01:32:13.641Z,0.00
2022-08-08T01:32:45.344Z,0.00
2022-08-08T01:34:00.210Z,0.00
2022-08-08T01:34:45.360Z,0.00
2022-08-08T01:35:44.331Z,0.00
2022-08-08T01:36:48.657Z,0.00
2022-08-08T01:37:57.398Z,0.00
2022-08-08T01:38:45.301Z,0.00
2022-08-08T01:39:44.338Z,0.00
2022-08-08T01:40:44.288Z,0.00
2022-08-08T01:41:44.328Z,0.00
2022-08-08T01:42:44.262Z,0.00
2022-08-08T01:43:44.310Z,0.00
2022-08-08T01:44:44.291Z,0.00
2022-08-08T01:45:45.281Z,0.00
2022-08-08T01:46:47.515Z,0.00
2022-08-08T01:48:13.847Z,0.00
2022-08-08T01:48:46.448Z,0.00
2022-08-08T01:49:44.203Z,0.00
2022-08-08T01:50:44.313Z,0.00
2022-08-08T01:52:29.367Z,0.00
2022-08-08T01:54:01.030Z,0.00
2022-08-08T01:55:17.772Z,0.00
2022-08-08T01:55:18.788Z,0.00
2022-08-08T01:56:28.325Z,0.00
2022-08-08T01:56:46.930Z,0.00
2022-08-08T01:58:11.929Z,0.00
2022-08-08T01:58:46.436Z,0.00
2022-08-08T02:00:02.361Z,0.00
2022-08-08T02:00:48.539Z,0.00
2022-08-08T02:02:00.207Z,0.00
2022-08-08T02:02:45.378Z,0.00
2022-08-08T02:03:56.827Z,0.00
2022-08-08T02:04:45.054Z,0.00
2022-08-08T02:05:56.910Z,0.00
2022-08-08T02:06:45.070Z,0.00
2022-08-08T02:07:48.786Z,0.00
2022-08-08T02:08:45.686Z,0.00
2022-08-08T02:10:02.720Z,0.00
2022-08-08T02:10:45.914Z,0.00
2022-08-08T02:11:59.523Z,0.00
2022-08-08T02:12:45.046Z,0.00
2022-08-08T02:13:53.708Z,0.00
2022-08-08T02:14:55.892Z,0.00
2022-08-08T02:15:44.978Z,0.00
2022-08-08T02:16:43.941Z,0.00
2022-08-08T02:17:43.949Z,0.00
2022-08-08T02:18:43.937Z,0.00
2022-08-08T02:20:07.801Z,0.00
2022-08-08T02:21:01.822Z,0.00
2022-08-08T02:21:44.864Z,0.00
2022-08-08T02:22:52.318Z,0.00
2022-08-08T02:23:44.870Z,0.00
2022-08-08T02:24:44.224Z,0.00
2022-08-08T02:25:48.479Z,0.00
2022-08-08T02:26:44.807Z,0.00
2022-08-08T02:27:43.989Z,0.00
2022-08-08T02:28:48.614Z,0.00
2022-08-08T02:29:51.594Z,0.00
2022-08-08T02:30:49.744Z,0.00
2022-08-08T02:31:59.588Z,0.00
2022-08-08T02:32:44.790Z,0.00
2022-08-08T02:34:00.585Z,0.00
2022-08-08T02:35:08.596Z,0.00
2022-08-08T02:36:04.280Z,0.00
2022-08-08T02:36:44.753Z,0.00
2022-08-08T02:37:51.966Z,0.00
2022-08-08T02:38:48.957Z,0.00
2022-08-08T02:40:00.289Z,0.00
2022-08-08T02:40:45.146Z,0.00
2022-08-08T02:41:58.942Z,0.00
2022-08-08T02:42:44.706Z,0.00
2022-08-08T02:44:37.769Z,0.00
2022-08-08T02:44:54.320Z,0.00
2022-08-08T02:45:54.035Z,0.00
2022-08-08T02:46:44.657Z,0.00
2022-08-08T02:47:46.765Z,0.00
2022-08-08T02:48:45.295Z,0.00
2022-08-08T02:49:47.828Z,0.00
2022-08-08T02:50:52.878Z,0.00
2022-08-08T02:51:55.202Z,0.00
2022-08-08T02:52:50.306Z,0.00
2022-08-08T02:53:44.568Z,0.00
2022-08-08T02:54:43.575Z,0.00
2022-08-08T02:55:43.564Z,0.00
2022-08-08T02:56:43.536Z,0.00
2022-08-08T02:57:44.440Z,0.00
2022-08-08T02:58:43.533Z,0.00
2022-08-08T02:59:57.660Z,0.00
2022-08-08T03:00:50.779Z,0.00
2022-08-08T03:01:50.109Z,0.00
2022-08-08T03:02:50.390Z,0.00
2022-08-08T03:05:00.988Z,0.00
2022-08-08T03:05:03.185Z,0.00
2022-08-08T03:05:45.449Z,0.00
2022-08-08T03:06:43.487Z,0.00
2022-08-08T03:07:57.967Z,0.00
2022-08-08T03:08:44.460Z,0.00
2022-08-08T03:09:44.433Z,0.00
2022-08-08T03:10:44.645Z,0.00
2022-08-08T03:12:01.005Z,0.00
2022-08-08T03:13:02.591Z,0.00
2022-08-08T03:15:58.630Z,0.00
2022-08-08T03:16:03.865Z,0.00
2022-08-08T03:16:04.029Z,0.00
2022-08-08T03:16:44.371Z,0.00
2022-08-08T03:17:43.406Z,0.00
2022-08-08T03:18:44.359Z,0.00
2022-08-08T03:19:50.669Z,0.00
2022-08-08T03:20:46.808Z,0.00
2022-08-08T03:21:58.199Z,0.00
2022-08-08T03:22:44.320Z,0.00
2022-08-08T03:23:59.508Z,0.00
2022-08-08T03:24:44.295Z,0.00
2022-08-08T03:25:43.257Z,0.00
2022-08-08T03:26:43.283Z,0.00
2022-08-08T03:27:43.323Z,0.00
2022-08-08T03:28:43.236Z,0.00
2022-08-08T03:29:56.166Z,0.00
2022-08-08T03:30:44.224Z,0.00
2022-08-08T03:32:05.287Z,0.00
2022-08-08T03:32:47.276Z,0.00
2022-08-08T03:33:55.739Z,0.00
2022-08-08T03:34:44.194Z,0.00
2022-08-08T03:35:43.159Z,0.00
2022-08-08T03:36:44.172Z,0.00
2022-08-08T03:38:53.207Z,0.00
2022-08-08T03:38:54.776Z,0.00
2022-08-08T03:39:51.994Z,0.00
2022-08-08T03:40:46.722Z,0.00
2022-08-08T03:42:27.229Z,0.00
2022-08-08T03:42:45.648Z,0.00
2022-08-08T03:43:43.119Z,0.00
2022-08-08T03:44:47.815Z,0.00
2022-08-08T03:46:04.964Z,0.00
2022-08-08T03:46:44.064Z,0.00
2022-08-08T03:47:45.971Z,0.00
2022-08-08T03:49:56.375Z,0.00
2022-08-08T03:49:59.776Z,0.00
2022-08-08T03:50:44.024Z,0.00
2022-08-08T03:51:51.446Z,0.00
2022-08-08T03:52:45.155Z,0.00
2022-08-08T03:53:47.588Z,0.00
2022-08-08T03:55:01.701Z,0.00
2022-08-08T03:55:56.629Z,5.62
2022-08-08T03:56:46.571Z,5.62
2022-08-08T03:58:31.630Z,5.62
2022-08-08T03:58:47.872Z,5.62
2022-08-08T04:00:02.533Z,5.62
2022-08-08T04:01:02.872Z,5.62
2022-08-08T04:02:12.631Z,5.62
2022-08-08T04:02:51.851Z,5.62
2022-08-08T04:03:58.018Z,5.62
2022-08-08T04:04:43.993Z,5.62
2022-08-08T04:05:48.120Z,11.25
2022-08-08T04:06:43.851Z,11.25
2022-08-08T04:07:42.865Z,11.25
2022-08-08T04:08:46.042Z,11.25
2022-08-08T04:10:02.991Z,11.25
2022-08-08T04:10:43.824Z,11.25
2022-08-08T04:11:57.972Z,11.25
2022-08-08T04:12:43.847Z,16.88
2022-08-08T04:14:03.631Z,16.88
2022-08-08T04:14:44.947Z,16.88
2022-08-08T04:15:55.210Z,16.88
2022-08-08T04:16:43.813Z,16.88
2022-08-08T04:17:58.013Z,16.88
2022-08-08T04:18:48.635Z,16.88
2022-08-08T04:19:43.730Z,22.50
2022-08-08T04:20:42.743Z,22.50
2022-08-08T04:21:45.714Z,22.50
2022-08-08T04:22:42.745Z,22.50
2022-08-08T04:24:19.322Z,28.12
2022-08-08T04:24:43.686Z,28.12
2022-08-08T04:25:43.665Z,28.12
2022-08-08T04:26:57.338Z,28.12
2022-08-08T04:28:03.008Z,28.12
2022-08-08T04:28:43.669Z,33.75
2022-08-08T04:29:55.051Z,33.75
2022-08-08T04:30:44.605Z,33.75
2022-08-08T04:31:59.658Z,33.75
2022-08-08T04:32:47.820Z,39.38
2022-08-08T04:33:43.613Z,39.38
2022-08-08T04:34:49.308Z,39.38
2022-08-08T04:35:50.869Z,39.38
2022-08-08T04:36:43.621Z,45.00
2022-08-08T04:37:43.555Z,45.00
2022-08-08T04:38:43.823Z,45.00
2022-08-08T04:40:05.763Z,50.62
2022-08-08T04:40:54.312Z,50.62
2022-08-08T04:41:43.555Z,50.62
2022-08-08T04:42:46.609Z,56.25
2022-08-08T04:43:46.903Z,56.25
2022-08-08T04:44:43.500Z,56.25
2022-08-08T04:45:42.495Z,61.88
2022-08-08T04:46:42.455Z,61.88
2022-08-08T04:47:46.448Z,61.88
2022-08-08T04:48:42.594Z,67.50
2022-08-08T04:50:01.621Z,67.50
2022-08-08T04:50:45.889Z,67.50
2022-08-08T04:51:55.031Z,73.12
2022-08-08T04:52:43.408Z,73.12
2022-08-08T04:54:36.130Z,73.12
2022-08-08T04:54:43.434Z,78.75
2022-08-08T04:55:55.604Z,78.75
2022-08-08T04:56:43.369Z,84.38
2022-08-08T04:57:42.365Z,84.38
2022-08-08T04:58:42.429Z,84.38
2022-08-08T04:59:42.739Z,90.00
2022-08-08T05:00:42.372Z,90.00
2022-08-08T05:01:48.392Z,95.62
2022-08-08T05:02:43.377Z,95.62
2022-08-08T05:04:08.363Z,95.62
2022-08-08T05:04:44.619Z,95.62
2022-08-08T05:05:45.411Z,95.62
2022-08-08T05:06:42.362Z,101.25
2022-08-08T05:07:42.791Z,101.25
2022-08-08T05:08:42.258Z,106.88
2022-08-08T05:09:42.254Z,106.88
2022-08-08T05:10:42.241Z,106.88
2022-08-08T05:11:42.253Z,112.50
2022-08-08T05:12:59.987Z,112.50
2022-08-08T05:13:58.191Z,118.12
2022-08-08T05:14:43.211Z,118.12
2022-08-08T05:16:52.129Z,123.75
2022-08-08T05:16:54.787Z,118.12
2022-08-08T05:17:54.138Z,123.75
2022-08-08T05:18:43.206Z,129.38
2022-08-08T05:20:11.421Z,129.38
2022-08-08T05:20:50.337Z,135.00
2022-08-08T05:21:43.705Z,135.00
2022-08-08T05:22:43.142Z,135.00
2022-08-08T05:23:46.083Z,140.62
2022-08-08T05:24:42.135Z,140.62
2022-08-08T05:25:43.238Z,146.25
2022-08-08T05:26:42.075Z,146.25
2022-08-08T05:27:44.426Z,146.25
2022-08-08T05:28:56.409Z,151.88
2022-08-08T05:29:43.090Z,151.88
2022-08-08T05:30:47.405Z,157.50
2022-08-08T05:32:03.577Z,157.50
2022-08-08T05:32:43.560Z,163.12
2022-08-08T05:33:44.242Z,163.12
2022-08-08T05:34:43.491Z,163.12
2022-08-08T05:35:42.016Z,168.75
2022-08-08T05:36:42.130Z,168.75
2022-08-08T05:37:52.929Z,174.38
2022-08-08T05:38:43.023Z,174.38
2022-08-08T05:39:42.016Z,174.38
2022-08-08T05:40:41.934Z,180.00
2022-08-08T05:41:46.294Z,180.00
2022-08-08T05:42:42.896Z,185.62
2022-08-08T05:44:03.734Z,185.62
2022-08-08T05:44:42.900Z,185.62
2022-08-08T05:45:53.063Z,185.62
2022-08-08T05:46:42.886Z,185.62
2022-08-08T05:47:59.804Z,191.25
2022-08-08T05:48:42.856Z,191.25
2022-08-08T05:49:41.894Z,196.88
2022-08-08T05:50:42.854Z,196.88
2022-08-08T05:51:48.472Z,196.88
2022-08-08T05:52:42.809Z,202.50
2022-08-08T05:54:24.886Z,202.50
2022-08-08T05:54:50.229Z,208.12
2022-08-08T05:56:07.875Z,208.12
2022-08-08T05:56:47.448Z,208.12
2022-08-08T05:58:04.538Z,213.75
2022-08-08T05:58:53.532Z,213.75
2022-08-08T05:59:53.674Z,213.75
2022-08-08T06:00:44.449Z,219.38
2022-08-08T06:01:55.565Z,219.38
2022-08-08T06:02:43.508Z,225.00
2022-08-08T06:03:42.102Z,225.00
2022-08-08T06:04:41.725Z,225.00
2022-08-08T06:05:42.688Z,225.00
2022-08-08T06:06:41.675Z,236.25
2022-08-08T06:07:43.790Z,236.25
2022-08-08T06:08:53.378Z,230.62
2022-08-08T06:10:00.360Z,236.25
2022-08-08T06:10:42.713Z,236.25
2022-08-08T06:11:46.006Z,236.25
2022-08-08T06:12:43.453Z,241.88
2022-08-08T06:13:47.256Z,241.88
2022-08-08T06:14:47.890Z,241.88
2022-08-08T06:15:53.329Z,247.50
2022-08-08T06:16:42.653Z,247.50
2022-08-08T06:17:50.866Z,247.50
2022-08-08T06:18:42.958Z,253.12
2022-08-08T06:19:41.646Z,253.12
2022-08-08T06:20:41.610Z,253.12
2022-08-08T06:21:48.821Z,258.75
2022-08-08T06:22:42.579Z,258.75
2022-08-08T06:23:53.126Z,258.75
2022-08-08T06:24:47.091Z,258.75
2022-08-08T06:26:39.010Z,264.38
2022-08-08T06:26:45.287Z,264.38
2022-08-08T06:27:47.582Z,264.38
2022-08-08T06:28:42.468Z,270.00
2022-08-08T06:29:56.830Z,270.00
2022-08-08T06:30:42.472Z,270.00
2022-08-08T06:32:09.103Z,270.00
2022-08-08T06:32:42.414Z,270.00
2022-08-08T06:34:25.505Z,275.62
2022-08-08T06:34:42.432Z,275.62
2022-08-08T06:36:09.241Z,275.62
2022-08-08T06:36:53.621Z,275.62
2022-08-08T06:37:43.669Z,275.62
2022-08-08T06:38:42.786Z,281.25
2022-08-08T06:39:56.111Z,281.25
2022-08-08T06:40:48.829Z,281.25
2022-08-08T06:41:42.328Z,281.25
2022-08-08T06:42:42.343Z,281.25
2022-08-08T06:43:41.315Z,281.25
2022-08-08T06:44:42.686Z,281.25
2022-08-08T06:45:42.293Z,281.25
2022-08-08T06:46:41.291Z,281.25
2022-08-08T06:47:52.705Z,281.25
2022-08-08T06:48:42.431Z,281.25
2022-08-08T06:49:56.858Z,281.25
2022-08-08T06:50:42.304Z,281.25
2022-08-08T06:51:49.055Z,286.88
2022-08-08T06:52:42.953Z,286.88
2022-08-08T06:53:50.835Z,286.88
2022-08-08T06:54:42.195Z,286.88
2022-08-08T06:55:41.684Z,286.88
2022-08-08T06:56:41.184Z,286.88
2022-08-08T06:57:54.801Z,286.88
2022-08-08T06:58:42.213Z,286.88
2022-08-08T07:00:02.548Z,286.88
2022-08-08T07:00:42.133Z,286.88
2022-08-08T07:02:17.232Z,292.50
2022-08-08T07:02:45.376Z,292.50
2022-08-08T07:04:35.034Z,292.50
2022-08-08T07:04:47.907Z,292.50
2022-08-08T07:05:43.113Z,292.50
2022-08-08T07:06:42.114Z,292.50
2022-08-08T07:07:41.136Z,292.50
2022-08-08T07:08:41.154Z,292.50
2022-08-08T07:09:45.312Z,292.50
2022-08-08T07:10:45.972Z,292.50
2022-08-08T07:11:50.623Z,292.50
2022-08-08T07:12:43.003Z,292.50
2022-08-08T07:14:00.563Z,292.50
2022-08-08T07:14:42.029Z,292.50
2022-08-08T07:16:05.599Z,298.12
2022-08-08T07:16:51.169Z,298.12
2022-08-08T07:18:01.451Z,298.12
2022-08-08T07:18:42.068Z,298.12
2022-08-08T07:19:40.968Z,298.12
2022-08-08T07:20:50.459Z,298.12
2022-08-08T07:21:41.950Z,298.12
2022-08-08T07:22:40.951Z,298.12
2022-08-08T07:24:01.818Z,298.12
2022-08-08T07:24:42.022Z,298.12
2022-08-08T07:25:54.087Z,298.12
2022-08-08T07:26:41.950Z,298.12
2022-08-08T07:27:46.974Z,298.12
2022-08-08T07:28:41.963Z,298.12
2022-08-08T07:30:02.533Z,303.75
2022-08-08T07:31:54.433Z,303.75
2022-08-08T07:32:29.903Z,303.75
2022-08-08T08:22:07.776Z,315.00
2022-08-08T08:22:16.028Z,315.00
2022-08-08T08:23:16.044Z,309.38
2022-08-08T08:24:15.539Z,315.00
2022-08-08T08:25:19.182Z,309.38
2022-08-08T08:26:15.058Z,315.00
2022-08-08T08:27:17.707Z,315.00
2022-08-08T08:28:21.167Z,315.00
2022-08-08T10:58:36.830Z,281.25
2022-08-08T10:59:22.246Z,281.25
2022-08-08T11:00:21.272Z,281.25
2022-08-08T11:01:21.762Z,281.25
2022-08-08T11:02:22.336Z,281.25
2022-08-08T11:03:36.340Z,281.25
2022-08-08T11:04:29.531Z,281.25
2022-08-08T11:05:23.073Z,281.25
2022-08-08T11:06:21.147Z,281.25
2022-08-08T11:08:30.188Z,281.25
2022-08-08T11:08:38.865Z,275.62
2022-08-08T11:09:22.959Z,275.62
2022-08-08T11:10:28.797Z,281.25
2022-08-08T11:11:59.759Z,275.62
2022-08-08T11:12:22.114Z,275.62
2022-08-08T11:13:31.737Z,275.62
2022-08-08T11:14:26.256Z,275.62
2022-08-08T11:15:21.083Z,275.62
2022-08-08T11:16:32.153Z,275.62
2022-08-08T11:17:58.621Z,275.62
2022-08-08T11:18:22.043Z,275.62
2022-08-08T11:19:21.071Z,275.62
2022-08-08T11:20:27.711Z,275.62
2022-08-08T11:21:22.005Z,275.62
2022-08-08T11:22:20.991Z,275.62
2022-08-08T11:23:21.998Z,275.62
2022-08-08T11:24:20.970Z,270.00
2022-08-08T11:25:20.992Z,270.00
2022-08-08T11:26:27.904Z,270.00
2022-08-08T11:27:23.466Z,270.00
2022-08-08T11:28:21.947Z,270.00
2022-08-08T11:29:20.972Z,270.00
2022-08-08T11:30:24.955Z,270.00
2022-08-08T11:31:21.903Z,270.00
2022-08-08T11:32:20.895Z,270.00
2022-08-08T11:33:21.908Z,270.00
2022-08-08T11:34:23.551Z,270.00
2022-08-08T11:35:27.314Z,270.00
2022-08-08T11:36:21.855Z,264.38
2022-08-08T11:38:34.677Z,264.38
2022-08-08T11:38:35.184Z,270.00
2022-08-08T11:39:21.850Z,270.00
2022-08-08T11:40:25.768Z,270.00
2022-08-08T11:41:21.803Z,270.00
2022-08-08T11:42:26.695Z,270.00
2022-08-08T11:43:24.509Z,270.00
2022-08-08T11:44:28.783Z,270.00
2022-08-08T11:45:21.770Z,270.00
2022-08-08T11:46:20.762Z,270.00
2022-08-08T11:47:21.029Z,270.00
2022-08-08T11:48:20.995Z,270.00
2022-08-08T11:49:20.729Z,270.00
2022-08-08T11:50:23.481Z,270.00
2022-08-08T11:51:29.888Z,270.00
2022-08-08T11:52:27.402Z,270.00
2022-08-08T11:53:24.356Z,270.00
2022-08-08T11:54:31.203Z,270.00
2022-08-08T11:55:21.674Z,270.00
2022-08-08T11:56:20.660Z,270.00
2022-08-08T11:57:23.859Z,270.00
2022-08-08T11:58:21.784Z,270.00
2022-08-08T11:59:20.647Z,270.00
2022-08-08T12:00:21.618Z,270.00
2022-08-08T12:01:20.619Z,270.00
2022-08-08T12:02:32.631Z,270.00
2022-08-08T12:03:21.658Z,270.00
2022-08-08T12:04:20.608Z,270.00
2022-08-08T12:05:22.765Z,275.62
2022-08-08T12:06:20.566Z,275.62
2022-08-08T12:07:20.554Z,275.62
2022-08-08T12:08:20.556Z,275.62
2022-08-08T12:09:20.536Z,275.62
2022-08-08T12:10:20.533Z,275.62
2022-08-08T12:11:27.075Z,275.62
2022-08-08T12:12:28.552Z,275.62
2022-08-08T12:13:38.319Z,275.62
2022-08-08T12:14:22.682Z,275.62
2022-08-08T12:15:41.766Z,275.62
2022-08-08T12:16:31.712Z,275.62
2022-08-08T12:17:23.355Z,281.25
2022-08-08T12:18:24.295Z,281.25
2022-08-08T12:19:22.118Z,281.25
2022-08-08T12:20:23.276Z,281.25
2022-08-08T12:21:21.763Z,281.25
2022-08-08T12:22:23.310Z,281.25
2022-08-08T12:23:30.502Z,281.25
2022-08-08T12:24:28.033Z,281.25
2022-08-08T12:25:24.714Z,281.25
2022-08-08T12:26:28.567Z,281.25
2022-08-08T12:27:26.485Z,281.25
2022-08-08T12:28:21.915Z,286.88
2022-08-08T12:29:55.530Z,286.88
2022-08-08T12:30:51.059Z,286.88
2022-08-08T12:31:22.572Z,286.88
2022-08-08T12:32:24.891Z,286.88
2022-08-08T12:33:21.512Z,286.88
2022-08-08T12:35:54.458Z,286.88
2022-08-08T12:35:56.048Z,286.88
2022-08-08T12:36:56.910Z,292.50
2022-08-08T12:38:02.187Z,292.50
2022-08-08T12:43:47.794Z,286.88
2022-08-08T12:44:39.642Z,292.50
2022-08-08T12:45:57.829Z,286.88
2022-08-08T12:46:39.643Z,292.50
2022-08-08T12:48:04.389Z,292.50
2022-08-08T12:48:39.697Z,292.50
2022-08-08T12:49:43.066Z,292.50
2022-08-08T12:50:39.588Z,292.50
2022-08-08T12:51:39.839Z,292.50
2022-08-08T12:52:40.444Z,292.50
2022-08-08T12:53:42.403Z,298.12
2022-08-08T12:54:40.867Z,292.50
2022-08-08T12:56:05.924Z,292.50
2022-08-08T12:56:39.571Z,298.12
2022-08-08T12:57:49.899Z,298.12
2022-08-08T12:58:39.599Z,298.12
2022-08-08T12:59:45.130Z,298.12
2022-08-08T13:00:39.552Z,298.12
2022-08-08T13:01:38.563Z,298.12
2022-08-08T13:02:42.201Z,298.12
2022-08-08T13:03:41.956Z,298.12
2022-08-08T13:04:38.465Z,298.12
2022-08-08T13:06:05.634Z,298.12
2022-08-08T13:06:39.438Z,298.12
2022-08-08T13:08:02.857Z,298.12
2022-08-08T13:08:39.441Z,298.12
2022-08-08T13:09:43.353Z,298.12
2022-08-08T13:10:46.130Z,303.75
2022-08-08T13:12:17.973Z,298.12
2022-08-08T13:12:44.461Z,298.12
2022-08-08T13:13:39.391Z,298.12
2022-08-08T13:14:38.366Z,298.12
2022-08-08T13:15:40.535Z,298.12
2022-08-08T13:16:39.541Z,298.12
2022-08-08T13:18:09.181Z,298.12
2022-08-08T13:18:55.754Z,298.12
2022-08-08T13:19:49.634Z,303.75
2022-08-08T13:20:40.541Z,298.12
2022-08-08T13:21:53.711Z,298.12
2022-08-08T13:22:40.565Z,298.12
2022-08-08T13:23:46.558Z,298.12
2022-08-08T13:24:48.102Z,298.12
2022-08-08T13:25:40.457Z,298.12
2022-08-08T13:26:39.413Z,298.12
2022-08-08T13:27:40.418Z,292.50
2022-08-08T13:28:42.098Z,298.12
2022-08-08T13:29:40.942Z,298.12
2022-08-08T13:30:39.381Z,298.12
2022-08-08T13:31:39.386Z,298.12
2022-08-08T13:32:39.704Z,298.12
2022-08-08T13:33:42.689Z,298.12
2022-08-08T13:35:02.147Z,298.12
2022-08-08T13:38:06.331Z,298.12
2022-08-08T13:38:52.885Z,298.12
2022-08-08T13:40:44.581Z,298.12
2022-08-08T13:44:11.020Z,298.12
2022-08-08T13:47:18.266Z,292.50
2022-08-08T13:47:58.199Z,292.50
2022-08-08T13:50:34.830Z,292.50
2022-08-08T13:50:35.329Z,292.50
2022-08-08T13:51:33.414Z,292.50
2022-08-08T13:51:55.805Z,292.50
2022-08-08T13:52:55.570Z,292.50
2022-08-08T13:54:00.007Z,292.50
2022-08-08T13:54:55.748Z,292.50
2022-08-08T13:55:54.792Z,292.50
2022-08-08T13:56:59.928Z,292.50
2022-08-08T13:58:07.812Z,286.88
2022-08-08T13:58:57.387Z,286.88
2022-08-08T13:59:54.726Z,286.88
2022-08-08T14:00:54.803Z,286.88
2022-08-08T14:01:57.187Z,286.88
2022-08-08T14:02:54.960Z,286.88
2022-08-08T14:03:56.043Z,286.88
2022-08-08T14:04:55.672Z,286.88
2022-08-08T14:06:01.147Z,281.25
2022-08-08T14:06:55.693Z,281.25
2022-08-08T14:07:59.534Z,281.25
2022-08-08T14:09:24.443Z,281.25
2022-08-08T14:10:04.343Z,281.25
2022-08-08T14:11:55.883Z,275.62
2022-08-08T14:12:54.595Z,275.62
2022-08-08T14:14:00.416Z,275.62
2022-08-08T14:14:55.607Z,275.62
2022-08-08T14:15:54.615Z,275.62
2022-08-08T14:16:55.460Z,270.00
2022-08-08T14:18:35.789Z,270.00
2022-08-08T16:13:02.254Z,112.50
2022-08-08T16:13:03.640Z,112.50
2022-08-08T16:13:13.851Z,112.50
2022-08-08T16:13:20.476Z,112.50
2022-08-08T16:13:45.799Z,112.50
2022-08-08T16:14:34.773Z,112.50
2022-08-08T16:15:33.773Z,112.50
2022-08-08T16:16:36.386Z,112.50
2022-08-08T16:18:06.443Z,112.50
2022-08-08T16:18:38.806Z,112.50
2022-08-08T16:20:00.148Z,106.88
2022-08-08T16:20:34.723Z,106.88
2022-08-08T16:21:33.708Z,106.88
2022-08-08T16:22:35.415Z,106.88
2022-08-08T16:23:39.943Z,106.88
2022-08-08T16:24:39.061Z,106.88
2022-08-08T16:25:45.905Z,106.88
2022-08-08T16:26:35.795Z,106.88
2022-08-08T16:27:42.489Z,106.88
2022-08-08T16:28:37.342Z,106.88
2022-08-08T16:30:08.754Z,101.25
2022-08-08T16:30:36.652Z,101.25
2022-08-08T16:31:33.608Z,101.25
2022-08-08T16:32:33.797Z,101.25
2022-08-08T16:33:38.081Z,101.25
2022-08-08T16:34:34.608Z,101.25
2022-08-08T16:35:33.592Z,101.25
2022-08-08T16:36:34.376Z,101.25
2022-08-08T16:37:33.551Z,101.25
2022-08-08T16:38:33.552Z,101.25
2022-08-08T16:40:00.506Z,101.25
2022-08-08T16:40:34.612Z,101.25
2022-08-08T16:41:33.559Z,95.62
2022-08-08T16:42:34.913Z,95.62
2022-08-08T16:43:42.039Z,95.62
2022-08-08T16:44:34.698Z,95.62
2022-08-08T16:46:37.653Z,95.62
2022-08-08T16:46:44.863Z,95.62
2022-08-08T16:47:42.144Z,95.62
2022-08-08T16:48:37.026Z,95.62
2022-08-08T16:49:38.537Z,95.62
2022-08-08T16:50:35.352Z,95.62
2022-08-08T16:55:01.614Z,95.62
2022-08-08T16:55:02.064Z,90.00
2022-08-08T16:55:04.079Z,90.00
2022-08-08T16:55:06.025Z,90.00
2022-08-08T16:55:55.652Z,90.00
2022-08-08T16:56:34.376Z,90.00
2022-08-08T16:58:16.619Z,90.00
2022-08-08T16:58:34.881Z,90.00
2022-08-08T16:59:50.796Z,90.00
2022-08-08T17:00:34.405Z,90.00
2022-08-08T17:01:35.623Z,90.00
2022-08-08T17:02:39.742Z,90.00
2022-08-08T17:03:58.973Z,90.00
2022-08-08T17:04:34.291Z,90.00
2022-08-08T17:05:45.092Z,84.38
2022-08-08T17:06:43.385Z,84.38
2022-08-08T17:07:37.549Z,84.38
2022-08-08T17:08:34.421Z,84.38
2022-08-08T17:09:44.885Z,84.38
2022-08-08T17:10:35.394Z,84.38
2022-08-08T17:11:39.294Z,84.38
2022-08-08T17:12:36.687Z,84.38
2022-08-08T17:13:49.822Z,84.38
2022-08-08T17:14:35.353Z,84.38
2022-08-08T17:15:34.594Z,78.75
2022-08-08T17:16:35.342Z,78.75
2022-08-08T17:18:01.279Z,78.75
2022-08-08T17:18:35.340Z,78.75
2022-08-08T17:19:41.052Z,78.75
2022-08-08T17:20:39.494Z,78.75
2022-08-08T17:21:34.326Z,78.75
2022-08-08T17:22:42.159Z,78.75
2022-08-08T17:24:00.375Z,78.75
2022-08-08T17:24:35.294Z,73.12
2022-08-08T17:25:51.973Z,73.12
2022-08-08T17:26:35.296Z,73.12
2022-08-08T17:27:46.285Z,73.12
2022-08-08T17:28:35.723Z,73.12
2022-08-08T17:29:36.498Z,73.12
2022-08-08T17:30:35.205Z,73.12
2022-08-08T17:31:44.373Z,73.12
2022-08-08T17:34:30.261Z,73.12
2022-08-08T17:34:37.434Z,67.50
2022-08-08T17:35:04.213Z,67.50
2022-08-08T17:35:54.418Z,67.50
2022-08-08T17:36:35.164Z,67.50
2022-08-08T17:37:34.183Z,67.50
2022-08-08T17:38:34.140Z,67.50
2022-08-08T17:40:03.211Z,61.88
2022-08-08T17:40:35.164Z,61.88
2022-08-08T17:41:38.889Z,61.88
2022-08-08T17:42:35.102Z,61.88
2022-08-08T17:44:01.189Z,61.88
2022-08-08T17:44:37.451Z,61.88
2022-08-08T17:45:36.509Z,56.25
2022-08-08T17:46:34.070Z,56.25
2022-08-08T17:47:40.141Z,56.25
2022-08-08T17:48:35.034Z,56.25
2022-08-08T17:49:42.715Z,56.25
2022-08-08T17:50:35.016Z,56.25
2022-08-08T17:51:34.054Z,56.25
2022-08-08T17:52:35.403Z,50.62
2022-08-08T17:53:43.122Z,50.62
2022-08-08T17:54:35.329Z,50.62
2022-08-08T17:56:06.677Z,50.62
2022-08-08T17:56:34.989Z,50.62
2022-08-08T17:57:35.438Z,50.62
2022-08-08T17:58:34.047Z,50.62
2022-08-08T17:59:36.406Z,45.00
2022-08-08T18:00:38.999Z,45.00
2022-08-08T18:01:50.971Z,45.00
2022-08-08T18:02:35.997Z,45.00
2022-08-08T18:03:33.976Z,45.00
2022-08-08T18:04:33.884Z,45.00
2022-08-08T18:05:44.154Z,45.00
2022-08-08T18:06:34.895Z,39.38
2022-08-08T18:08:02.187Z,39.38
2022-08-08T18:08:38.187Z,39.38
2022-08-08T18:09:37.980Z,39.38